createdAt,value
2022-10-30T00:00:21.917Z,29.88
2022-10-30T00:01:23.728Z,28.38
2022-10-30T00:02:25.492Z,34.60
2022-10-30T00:03:27.325Z,25.77
2022-10-30T00:04:28.967Z,28.25
2022-10-30T00:05:30.614Z,29.23
2022-10-30T00:06:32.274Z,31.10
2022-10-30T00:07:34.387Z,26.67
2022-10-30T00:08:36.350Z,29.07
2022-10-30T00:09:37.995Z,33.70
2022-10-30T00:10:40.070Z,34.83
2022-10-30T00:11:42.256Z,29.73
2022-10-30T00:12:44.270Z,35.42
2022-10-30T00:13:46.018Z,23.20
2022-10-30T00:14:47.673Z,30.50
2022-10-30T00:15:51.160Z,29.20
2022-10-30T00:16:52.826Z,32.15
2022-10-30T00:17:54.666Z,30.00
2022-10-30T00:18:56.549Z,26.13
2022-10-30T00:19:58.224Z,28.30
2022-10-30T00:21:05.873Z,29.20
2022-10-30T00:23:08.168Z,28.67
2022-10-30T00:24:11.116Z,28.33
2022-10-30T00:25:12.773Z,24.03
2022-10-30T00:26:15.290Z,29.13
2022-10-30T00:27:17.186Z,27.00
2022-10-30T00:28:18.881Z,32.42
2022-10-30T00:29:20.605Z,30.60
2022-10-30T00:30:22.268Z,29.30
2022-10-30T00:31:24.081Z,25.50
2022-10-30T00:32:25.845Z,26.95
2022-10-30T00:33:27.580Z,26.98
2022-10-30T00:34:29.240Z,35.55
2022-10-30T00:35:31.683Z,30.13
2022-10-30T00:36:33.431Z,30.10
2022-10-30T00:37:35.072Z,28.77
2022-10-30T00:38:36.758Z,34.97
2022-10-30T00:39:38.413Z,31.90
2022-10-30T00:40:40.062Z,29.85
2022-10-30T00:41:42.053Z,29.40
2022-10-30T00:42:44.339Z,30.23
2022-10-30T00:43:46.392Z,28.25
2022-10-30T00:44:50.289Z,32.75
2022-10-30T00:45:52.180Z,24.97
2022-10-30T00:46:54.246Z,28.75
2022-10-30T00:48:01.087Z,27.85
2022-10-30T00:49:12.325Z,22.70
2022-10-30T00:51:34.054Z,26.30
2022-10-30T00:52:40.708Z,25.90
2022-10-30T00:53:43.569Z,29.15
2022-10-30T00:54:45.247Z,25.35
2022-10-30T00:55:57.223Z,20.73
2022-10-30T00:57:01.133Z,20.77
2022-10-30T00:58:07.780Z,38.20
2022-10-30T00:59:13.968Z,27.85
2022-10-30T01:00:17.117Z,29.90
2022-10-30T01:01:24.471Z,27.65
2022-10-30T01:02:26.851Z,23.95
2022-10-30T01:03:29.713Z,27.27
2022-10-30T01:04:33.873Z,21.75
2022-10-30T01:05:36.201Z,25.50
2022-10-30T01:06:41.030Z,27.83
2022-10-30T01:07:42.709Z,24.80
2022-10-30T01:08:45.406Z,24.77
2022-10-30T01:09:48.025Z,21.88
2022-10-30T01:10:49.936Z,20.42
2022-10-30T01:11:51.591Z,24.13
2022-10-30T01:12:54.621Z,24.90
2022-10-30T01:13:59.346Z,22.38
2022-10-30T01:15:02.056Z,21.08
2022-10-30T01:16:40.239Z,24.45
2022-10-30T01:18:02.970Z,25.27
2022-10-30T01:19:13.939Z,17.90
2022-10-30T01:20:35.825Z,21.02
2022-10-30T01:21:56.645Z,23.40
2022-10-30T01:23:04.260Z,19.40
2022-10-30T01:24:39.725Z,18.95
2022-10-30T01:26:06.536Z,21.38
2022-10-30T01:27:29.695Z,22.17
2022-10-30T01:28:43.072Z,24.20
2022-10-30T01:30:10.879Z,25.83
2022-10-30T01:31:31.060Z,23.67
2022-10-30T01:32:49.170Z,22.67
2022-10-30T01:34:09.545Z,23.20
2022-10-30T01:35:14.196Z,22.77
2022-10-30T01:36:28.564Z,21.45
2022-10-30T01:37:38.723Z,23.50
2022-10-30T01:38:54.595Z,22.77
2022-10-30T01:39:56.498Z,23.05
2022-10-30T01:40:58.139Z,18.85
2022-10-30T01:42:00.677Z,26.73
2022-10-30T01:43:02.325Z,25.02
2022-10-30T01:44:10.036Z,26.67
2022-10-30T01:45:18.817Z,23.88
2022-10-30T01:46:45.019Z,22.95
2022-10-30T01:48:11.667Z,26.88
2022-10-30T01:49:25.316Z,24.98
2022-10-30T01:50:49.407Z,24.08
2022-10-30T01:52:03.213Z,22.70
2022-10-30T01:53:26.653Z,20.02
2022-10-30T01:54:42.285Z,29.45
2022-10-30T01:56:09.501Z,19.98
2022-10-30T01:57:35.898Z,18.83
2022-10-30T01:58:57.235Z,21.65
2022-10-30T02:00:01.676Z,17.75
2022-10-30T02:01:05.131Z,27.30
2022-10-30T02:02:07.604Z,24.70
2022-10-30T02:03:09.811Z,23.13
2022-10-30T02:04:13.555Z,23.75
2022-10-30T02:05:26.409Z,24.77
2022-10-30T02:06:28.294Z,19.42
2022-10-30T02:07:29.951Z,23.08
2022-10-30T02:08:31.859Z,23.63
2022-10-30T02:09:34.115Z,17.23
2022-10-30T02:10:37.091Z,24.27
2022-10-30T02:11:39.170Z,22.77
2022-10-30T02:12:41.425Z,22.20
2022-10-30T02:13:43.413Z,19.92
2022-10-30T02:14:54.965Z,22.98
2022-10-30T02:15:58.444Z,17.98
2022-10-30T02:17:04.209Z,18.38
2022-10-30T02:18:05.980Z,26.75
2022-10-30T02:19:07.811Z,15.97
2022-10-30T02:20:17.870Z,25.80
2022-10-30T02:21:20.133Z,18.70
2022-10-30T02:22:22.175Z,22.52
2022-10-30T02:23:24.349Z,26.60
2022-10-30T02:24:26.159Z,21.33
2022-10-30T02:25:27.865Z,26.77
2022-10-30T02:26:30.341Z,26.25
2022-10-30T02:27:32.340Z,20.42
2022-10-30T02:28:34.005Z,21.02
2022-10-30T02:29:35.820Z,24.00
2022-10-30T02:30:37.601Z,19.85
2022-10-30T02:31:39.346Z,15.25
2022-10-30T02:32:41.004Z,22.23
2022-10-30T02:33:47.704Z,21.63
2022-10-30T02:34:49.353Z,24.45
2022-10-30T02:35:51.916Z,23.95
2022-10-30T02:36:54.332Z,23.80
2022-10-30T02:37:57.185Z,18.20
2022-10-30T02:39:00.095Z,23.95
2022-10-30T02:40:03.176Z,17.47
2022-10-30T02:41:04.934Z,21.23
2022-10-30T02:42:06.717Z,21.88
2022-10-30T02:43:08.408Z,24.13
2022-10-30T02:44:10.063Z,21.10
2022-10-30T02:45:11.815Z,19.58
2022-10-30T02:46:13.491Z,25.98
2022-10-30T02:47:15.262Z,20.55
2022-10-30T02:48:16.907Z,20.33
2022-10-30T02:49:18.661Z,24.88
2022-10-30T02:50:20.330Z,20.23
2022-10-30T02:51:22.042Z,18.80
2022-10-30T02:52:23.694Z,23.13
2022-10-30T02:53:25.346Z,20.92
2022-10-30T02:54:27.081Z,24.08
2022-10-30T02:55:28.740Z,25.45
2022-10-30T02:56:30.411Z,22.05
2022-10-30T02:57:32.149Z,19.35
2022-10-30T02:58:33.910Z,23.58
2022-10-30T02:59:35.571Z,19.02
2022-10-30T03:00:37.928Z,26.83
2022-10-30T03:01:39.697Z,16.33
2022-10-30T03:02:41.535Z,18.08
2022-10-30T03:03:43.635Z,23.13
2022-10-30T03:04:45.286Z,20.95
2022-10-30T03:05:46.941Z,18.33
2022-10-30T03:06:48.731Z,18.77
2022-10-30T03:07:51.482Z,25.13
2022-10-30T03:08:53.178Z,23.77
2022-10-30T03:09:54.997Z,20.80
2022-10-30T03:11:04.529Z,21.23
2022-10-30T03:12:06.407Z,21.05
2022-10-30T03:13:08.053Z,17.75
2022-10-30T03:14:09.937Z,21.38
2022-10-30T03:15:11.624Z,16.95
2022-10-30T03:16:20.103Z,19.15
2022-10-30T03:17:21.770Z,24.05
2022-10-30T03:18:23.492Z,23.13
2022-10-30T03:19:25.177Z,24.80
2022-10-30T03:20:26.828Z,21.92
2022-10-30T03:21:29.296Z,20.00
2022-10-30T03:22:31.057Z,18.55
2022-10-30T03:23:33.237Z,19.67
2022-10-30T03:24:34.913Z,25.90
2022-10-30T03:25:36.548Z,19.02
2022-10-30T03:26:38.239Z,19.70
2022-10-30T03:27:39.867Z,22.17
2022-10-30T03:28:41.526Z,17.52
2022-10-30T03:29:43.174Z,18.15
2022-10-30T03:30:44.828Z,18.45
2022-10-30T03:31:46.488Z,18.67
2022-10-30T03:32:48.196Z,18.58
2022-10-30T03:33:49.859Z,21.75
2022-10-30T03:34:51.732Z,18.70
2022-10-30T03:35:53.387Z,18.55
2022-10-30T03:36:56.052Z,20.90
2022-10-30T03:37:57.704Z,22.23
2022-10-30T03:38:59.419Z,15.75
2022-10-30T03:40:01.058Z,20.13
2022-10-30T03:41:02.882Z,16.63
2022-10-30T03:42:04.690Z,18.23
2022-10-30T03:43:06.419Z,18.77
2022-10-30T03:44:08.079Z,15.95
2022-10-30T03:45:10.093Z,24.08
2022-10-30T03:46:11.757Z,19.83
2022-10-30T03:47:13.638Z,21.85
2022-10-30T03:48:16.084Z,22.52
2022-10-30T03:49:17.734Z,18.17
2022-10-30T03:50:19.384Z,20.00
2022-10-30T03:51:21.021Z,20.50
2022-10-30T03:52:22.801Z,21.73
2022-10-30T03:53:26.398Z,20.70
2022-10-30T03:54:28.192Z,22.55
2022-10-30T03:55:29.861Z,18.55
2022-10-30T03:56:31.498Z,23.35
2022-10-30T03:57:37.154Z,27.05
2022-10-30T03:58:38.784Z,17.17
2022-10-30T03:59:40.438Z,21.85
2022-10-30T04:00:42.094Z,24.25
2022-10-30T04:01:43.924Z,22.48
2022-10-30T04:02:50.225Z,17.27
2022-10-30T04:03:51.887Z,21.55
2022-10-30T04:04:53.538Z,21.42
2022-10-30T04:05:55.250Z,19.48
2022-10-30T04:06:56.887Z,21.20
2022-10-30T04:08:00.973Z,24.70
2022-10-30T04:09:02.717Z,22.92
2022-10-30T04:10:04.634Z,24.75
2022-10-30T04:11:06.367Z,20.85
2022-10-30T04:12:08.101Z,19.90
2022-10-30T04:13:11.516Z,19.50
2022-10-30T04:14:13.216Z,20.90
2022-10-30T04:15:14.929Z,24.05
2022-10-30T04:16:16.596Z,20.33
2022-10-30T04:17:18.228Z,19.55
2022-10-30T04:18:19.895Z,22.30
2022-10-30T04:19:22.812Z,17.65
2022-10-30T04:20:26.082Z,21.05
2022-10-30T04:21:27.825Z,20.35
2022-10-30T04:22:29.538Z,23.38
2022-10-30T04:23:31.247Z,20.87
2022-10-30T04:24:32.911Z,18.17
2022-10-30T04:25:35.292Z,18.25
2022-10-30T04:26:37.063Z,19.67
2022-10-30T04:27:42.969Z,16.67
2022-10-30T04:28:44.645Z,17.08
2022-10-30T04:29:47.202Z,16.80
2022-10-30T04:30:49.094Z,18.90
2022-10-30T04:31:50.786Z,17.77
2022-10-30T04:32:54.674Z,18.25
2022-10-30T04:33:56.482Z,17.47
2022-10-30T04:34:58.113Z,19.67
2022-10-30T04:35:59.750Z,16.88
2022-10-30T04:37:01.410Z,18.70
2022-10-30T04:38:05.449Z,23.05
2022-10-30T04:39:07.121Z,17.77
2022-10-30T04:40:09.773Z,26.33
2022-10-30T04:41:11.399Z,15.80
2022-10-30T04:42:13.049Z,17.13
2022-10-30T04:43:15.123Z,20.27
2022-10-30T04:44:16.776Z,20.10
2022-10-30T04:45:18.768Z,17.75
2022-10-30T04:46:20.404Z,18.40
2022-10-30T04:47:22.119Z,16.77
2022-10-30T04:48:23.836Z,17.67
2022-10-30T04:49:26.167Z,22.58
2022-10-30T04:50:28.163Z,16.58
2022-10-30T04:51:29.830Z,21.25
2022-10-30T04:52:31.474Z,26.20
2022-10-30T04:53:33.322Z,18.92
2022-10-30T04:54:34.976Z,18.73
2022-10-30T04:55:36.648Z,17.92
2022-10-30T04:56:38.659Z,17.83
2022-10-30T04:57:40.332Z,19.40
2022-10-30T04:58:42.151Z,18.52
2022-10-30T04:59:43.883Z,18.65
2022-10-30T05:00:45.547Z,18.48
2022-10-30T05:01:47.311Z,21.80
2022-10-30T05:02:49.034Z,14.65
2022-10-30T05:03:53.764Z,17.98
2022-10-30T05:04:56.635Z,18.43
2022-10-30T05:06:04.217Z,19.00
2022-10-30T05:07:07.040Z,18.55
2022-10-30T05:08:08.985Z,20.15
2022-10-30T05:09:10.657Z,19.05
2022-10-30T05:10:17.064Z,17.98
2022-10-30T05:11:19.096Z,32.45
2022-10-30T05:12:20.970Z,14.63
2022-10-30T05:13:22.800Z,15.73
2022-10-30T05:14:24.525Z,17.45
2022-10-30T05:15:26.163Z,21.20
2022-10-30T05:16:27.822Z,22.90
2022-10-30T05:18:32.043Z,18.45
2022-10-30T05:19:33.738Z,16.92
2022-10-30T05:20:35.393Z,15.73
2022-10-30T05:21:37.086Z,18.73
2022-10-30T05:22:38.836Z,15.35
2022-10-30T05:23:40.587Z,17.98
2022-10-30T05:24:42.314Z,21.48
2022-10-30T05:25:43.985Z,14.17
2022-10-30T05:26:46.205Z,16.55
2022-10-30T05:27:47.918Z,18.17
2022-10-30T05:28:49.567Z,14.07
2022-10-30T05:29:52.147Z,21.88
2022-10-30T05:30:55.497Z,20.88
2022-10-30T05:31:57.175Z,21.17
2022-10-30T05:33:06.741Z,14.55
2022-10-30T05:34:08.979Z,17.70
2022-10-30T05:35:10.620Z,16.60
2022-10-30T05:36:12.611Z,17.53
2022-10-30T05:37:14.286Z,15.27
2022-10-30T05:38:15.945Z,18.77
2022-10-30T05:39:17.583Z,12.90
2022-10-30T05:40:19.383Z,20.10
2022-10-30T05:41:21.524Z,15.23
2022-10-30T05:42:23.248Z,17.88
2022-10-30T05:43:24.966Z,15.98
2022-10-30T05:44:40.717Z,20.52
2022-10-30T05:45:51.166Z,18.40
2022-10-30T05:46:53.181Z,16.13
2022-10-30T05:47:57.001Z,16.40
2022-10-30T05:49:00.629Z,15.60
2022-10-30T05:50:02.795Z,13.63
2022-10-30T05:51:06.469Z,14.68
2022-10-30T05:52:08.110Z,17.33
2022-10-30T05:53:10.560Z,22.63
2022-10-30T05:54:12.225Z,15.15
2022-10-30T05:55:13.917Z,16.02
2022-10-30T05:56:15.620Z,16.52
2022-10-30T05:57:17.295Z,13.27
2022-10-30T05:58:18.945Z,18.23
2022-10-30T05:59:20.638Z,13.35
2022-10-30T06:00:22.475Z,13.57
2022-10-30T06:01:24.244Z,15.38
2022-10-30T06:02:26.970Z,18.17
2022-10-30T06:03:28.660Z,19.17
2022-10-30T06:04:30.305Z,12.57
2022-10-30T06:05:34.307Z,17.13
2022-10-30T06:06:35.977Z,20.05
2022-10-30T06:07:37.628Z,16.00
2022-10-30T06:08:39.416Z,18.17
2022-10-30T06:09:41.061Z,22.15
2022-10-30T06:10:43.871Z,16.55
2022-10-30T06:11:45.521Z,16.52
2022-10-30T06:12:57.262Z,14.40
2022-10-30T06:13:59.208Z,13.52
2022-10-30T06:15:00.885Z,14.75
2022-10-30T06:16:02.629Z,12.05
2022-10-30T06:17:04.344Z,16.52
2022-10-30T06:18:06.073Z,21.87
2022-10-30T06:19:07.759Z,17.30
2022-10-30T06:20:10.019Z,14.55
2022-10-30T06:21:11.679Z,13.35
2022-10-30T06:22:13.382Z,13.25
2022-10-30T06:23:15.239Z,15.45
2022-10-30T06:24:17.903Z,20.40
2022-10-30T06:25:19.551Z,15.68
2022-10-30T06:26:21.319Z,20.00
2022-10-30T06:27:22.977Z,13.25
2022-10-30T06:28:24.740Z,21.63
2022-10-30T06:29:26.437Z,17.73
2022-10-30T06:30:29.877Z,20.25
2022-10-30T06:31:31.684Z,19.48
2022-10-30T06:32:33.327Z,20.85
2022-10-30T06:33:35.143Z,12.77
2022-10-30T06:34:36.785Z,19.00
2022-10-30T06:35:38.528Z,25.30
2022-10-30T06:36:40.286Z,16.88
2022-10-30T06:37:53.535Z,20.90
2022-10-30T06:38:55.208Z,20.30
2022-10-30T06:39:56.865Z,18.73
2022-10-30T06:40:58.502Z,12.60
2022-10-30T06:42:00.173Z,15.20
2022-10-30T06:43:02.320Z,15.05
2022-10-30T06:44:04.366Z,14.82
2022-10-30T06:45:08.444Z,18.73
2022-10-30T06:46:10.170Z,16.73
2022-10-30T06:47:11.858Z,16.67
2022-10-30T06:48:13.516Z,23.67
2022-10-30T06:49:15.230Z,15.47
2022-10-30T06:50:18.978Z,17.02
2022-10-30T06:51:21.613Z,18.55
2022-10-30T06:52:23.327Z,17.63
2022-10-30T06:53:25.332Z,22.90
2022-10-30T06:54:26.981Z,21.25
2022-10-30T06:55:28.628Z,16.67
2022-10-30T06:56:30.274Z,19.20
2022-10-30T06:57:32.152Z,16.77
2022-10-30T06:58:38.942Z,13.90
2022-10-30T06:59:40.601Z,13.30
2022-10-30T07:00:42.342Z,18.65
2022-10-30T07:01:44.153Z,16.20
2022-10-30T07:02:58.831Z,20.52
2022-10-30T07:04:00.758Z,16.60
2022-10-30T07:05:03.036Z,18.55
2022-10-30T07:06:04.863Z,19.85
2022-10-30T07:07:06.618Z,17.15
2022-10-30T07:08:08.299Z,17.38
2022-10-30T07:09:10.322Z,16.13
2022-10-30T07:10:12.007Z,18.77
2022-10-30T07:11:13.679Z,14.90
2022-10-30T07:12:15.488Z,16.52
2022-10-30T07:13:17.772Z,16.23
2022-10-30T07:14:19.442Z,16.48
2022-10-30T07:15:22.188Z,18.20
2022-10-30T07:16:23.843Z,20.27
2022-10-30T07:17:25.493Z,16.05
2022-10-30T07:18:27.129Z,16.45
2022-10-30T07:19:28.811Z,16.92
2022-10-30T07:20:33.039Z,16.63
2022-10-30T07:21:34.728Z,20.05
2022-10-30T07:22:39.173Z,16.00
2022-10-30T07:23:40.863Z,15.88
2022-10-30T07:24:42.556Z,14.00
2022-10-30T07:25:44.199Z,16.67
2022-10-30T07:26:45.895Z,16.00
2022-10-30T07:27:49.941Z,14.48
2022-10-30T07:28:51.588Z,18.98
2022-10-30T07:29:53.224Z,17.52
2022-10-30T07:30:54.858Z,22.10
2022-10-30T07:32:03.012Z,20.08
2022-10-30T07:33:07.152Z,19.08
2022-10-30T07:34:08.927Z,19.65
2022-10-30T07:35:13.070Z,17.00
2022-10-30T07:36:15.058Z,16.98
2022-10-30T07:37:16.773Z,13.93
2022-10-30T07:38:19.300Z,15.23
2022-10-30T07:39:20.969Z,13.70
2022-10-30T07:40:23.124Z,15.70
2022-10-30T07:41:24.856Z,18.73
2022-10-30T07:42:26.596Z,14.45
2022-10-30T07:43:28.241Z,16.33
2022-10-30T07:44:29.937Z,20.88
2022-10-30T07:45:31.912Z,16.38
2022-10-30T07:46:33.573Z,12.88
2022-10-30T07:47:42.868Z,20.20
2022-10-30T07:48:44.534Z,17.92
2022-10-30T07:49:46.239Z,16.17
2022-10-30T07:50:47.897Z,18.45
2022-10-30T07:51:49.659Z,13.30
2022-10-30T07:52:51.365Z,21.90
2022-10-30T07:53:53.039Z,19.60
2022-10-30T07:54:55.469Z,17.20
2022-10-30T07:55:57.709Z,19.55
2022-10-30T07:56:59.422Z,17.40
2022-10-30T07:58:01.416Z,16.60
2022-10-30T07:59:03.240Z,15.70
2022-10-30T08:00:13.918Z,16.58
2022-10-30T08:01:15.712Z,14.95
2022-10-30T08:02:17.621Z,16.93
2022-10-30T08:03:19.415Z,17.17
2022-10-30T08:04:21.052Z,16.08
2022-10-30T08:05:27.120Z,23.25
2022-10-30T08:06:30.604Z,17.90
2022-10-30T08:07:34.445Z,15.10
2022-10-30T08:08:39.078Z,20.83
2022-10-30T08:09:42.172Z,21.33
2022-10-30T08:10:43.842Z,23.17
2022-10-30T08:11:45.517Z,17.40
2022-10-30T08:12:48.223Z,16.03
2022-10-30T08:13:49.880Z,18.02
2022-10-30T08:14:52.384Z,19.85
2022-10-30T08:15:54.072Z,18.95
2022-10-30T08:16:55.711Z,19.60
2022-10-30T08:17:57.662Z,16.08
2022-10-30T08:18:59.577Z,18.33
2022-10-30T08:20:01.224Z,17.33
2022-10-30T08:21:02.904Z,16.48
2022-10-30T08:22:04.671Z,22.08
2022-10-30T08:23:06.339Z,16.30
2022-10-30T08:24:08.283Z,19.20
2022-10-30T08:25:09.937Z,14.70
2022-10-30T08:26:11.603Z,19.42
2022-10-30T08:27:14.250Z,20.40
2022-10-30T08:28:15.921Z,18.90
2022-10-30T08:29:17.583Z,19.60
2022-10-30T08:30:19.581Z,13.48
2022-10-30T08:31:21.286Z,15.65
2022-10-30T08:32:22.913Z,18.15
2022-10-30T08:33:24.757Z,17.37
2022-10-30T08:34:32.367Z,18.27
2022-10-30T08:36:42.799Z,14.45
2022-10-30T08:37:47.127Z,17.38
2022-10-30T08:38:48.794Z,17.92
2022-10-30T08:39:50.453Z,15.00
2022-10-30T08:40:52.670Z,15.48
2022-10-30T08:41:54.322Z,14.90
2022-10-30T08:42:58.277Z,15.77
2022-10-30T08:43:59.929Z,19.87
2022-10-30T08:45:01.641Z,15.68
2022-10-30T08:46:03.323Z,16.35
2022-10-30T08:47:05.009Z,17.58
2022-10-30T08:48:09.834Z,17.42
2022-10-30T08:49:11.487Z,18.15
2022-10-30T08:50:13.301Z,20.45
2022-10-30T08:51:14.998Z,18.58
2022-10-30T08:52:16.689Z,16.42
2022-10-30T08:53:18.489Z,17.48
2022-10-30T08:54:20.193Z,16.10
2022-10-30T08:55:22.103Z,18.15
2022-10-30T08:56:23.812Z,16.80
2022-10-30T08:57:25.917Z,15.57
2022-10-30T08:58:27.587Z,14.55
2022-10-30T08:59:29.312Z,14.85
2022-10-30T09:00:31.084Z,17.27
2022-10-30T09:01:32.849Z,13.68
2022-10-30T09:02:39.343Z,27.67
2022-10-30T09:03:43.016Z,15.45
2022-10-30T09:04:44.671Z,15.50
2022-10-30T09:05:46.316Z,20.80
2022-10-30T09:06:47.982Z,18.40
2022-10-30T09:07:49.668Z,17.08
2022-10-30T09:08:51.334Z,15.05
2022-10-30T09:09:52.996Z,19.33
2022-10-30T09:10:58.424Z,16.00
2022-10-30T09:12:00.112Z,20.15
2022-10-30T09:13:04.599Z,18.73
2022-10-30T09:14:06.267Z,15.43
2022-10-30T09:15:08.801Z,19.63
2022-10-30T09:16:10.456Z,23.33
2022-10-30T09:17:12.404Z,23.13
2022-10-30T09:18:14.048Z,16.98
2022-10-30T09:19:18.746Z,20.30
2022-10-30T09:20:20.714Z,17.75
2022-10-30T09:21:22.418Z,21.02
2022-10-30T09:22:24.272Z,18.45
2022-10-30T09:23:25.948Z,16.60
2022-10-30T09:24:27.590Z,18.77
2022-10-30T09:25:29.263Z,18.90
2022-10-30T09:26:30.913Z,19.10
2022-10-30T09:27:32.548Z,18.23
2022-10-30T09:28:34.320Z,18.42
2022-10-30T09:29:36.180Z,19.48
2022-10-30T09:30:37.915Z,20.00
2022-10-30T09:31:39.797Z,15.35
2022-10-30T09:32:41.480Z,15.38
2022-10-30T09:33:43.165Z,19.17
2022-10-30T09:34:45.239Z,17.52
2022-10-30T09:35:46.878Z,19.13
2022-10-30T09:36:49.614Z,20.23
2022-10-30T09:37:51.768Z,20.40
2022-10-30T09:38:55.666Z,17.42
2022-10-30T09:39:57.316Z,16.98
2022-10-30T09:41:18.427Z,14.77
2022-10-30T09:42:47.327Z,25.45
2022-10-30T09:43:58.969Z,17.88
2022-10-30T09:45:34.728Z,18.50
2022-10-30T09:46:57.199Z,18.08
2022-10-30T09:48:40.668Z,18.67
2022-10-30T09:50:07.637Z,18.23
2022-10-30T09:51:21.660Z,16.92
2022-10-30T09:52:34.891Z,16.30
2022-10-30T09:54:02.641Z,16.30
2022-10-30T09:55:16.703Z,18.77
2022-10-30T09:56:18.808Z,15.93
2022-10-30T09:57:43.989Z,15.07
2022-10-30T09:58:54.178Z,14.95
2022-10-30T09:59:55.800Z,16.48
2022-10-30T10:01:31.744Z,18.93
2022-10-30T10:02:45.226Z,13.63
2022-10-30T10:04:09.484Z,13.98
2022-10-30T10:05:21.195Z,19.17
2022-10-30T10:06:25.163Z,14.77
2022-10-30T10:07:43.565Z,11.93
2022-10-30T10:08:51.241Z,13.07
2022-10-30T10:09:56.834Z,16.30
2022-10-30T10:11:03.882Z,14.57
2022-10-30T10:12:12.634Z,16.75
2022-10-30T10:13:52.811Z,16.30
2022-10-30T10:14:56.012Z,16.55
2022-10-30T10:16:05.914Z,14.70
2022-10-30T10:17:13.202Z,14.05
2022-10-30T10:18:20.496Z,17.15
2022-10-30T10:19:41.114Z,19.13
2022-10-30T10:20:45.429Z,19.23
2022-10-30T10:21:56.587Z,20.27
2022-10-30T10:23:04.776Z,17.48
2022-10-30T10:24:19.936Z,17.00
2022-10-30T10:25:22.038Z,14.57
2022-10-30T10:26:33.158Z,17.30
2022-10-30T10:27:53.010Z,13.10
2022-10-30T10:29:08.822Z,16.17
2022-10-30T10:30:21.268Z,15.57
2022-10-30T10:31:45.350Z,14.27
2022-10-30T10:33:02.610Z,16.60
2022-10-30T10:34:35.631Z,20.10
2022-10-30T10:36:02.587Z,17.73
2022-10-30T10:37:23.067Z,15.43
2022-10-30T10:38:44.775Z,14.13
2022-10-30T10:40:16.505Z,13.77
2022-10-30T10:41:19.236Z,15.35
2022-10-30T10:42:49.193Z,14.60
2022-10-30T10:44:06.210Z,18.05
2022-10-30T10:46:16.868Z,16.15
2022-10-30T10:47:32.192Z,15.40
2022-10-30T10:48:52.635Z,13.15
2022-10-30T10:50:01.564Z,15.77
2022-10-30T10:51:09.121Z,19.80
2022-10-30T10:52:16.005Z,15.53
2022-10-30T10:53:45.009Z,17.35
2022-10-30T10:54:59.384Z,14.68
2022-10-30T10:56:01.612Z,16.23
2022-10-30T10:57:06.669Z,16.17
2022-10-30T10:58:30.438Z,15.82
2022-10-30T10:59:41.131Z,13.68
2022-10-30T11:00:43.690Z,16.05
2022-10-30T11:02:32.763Z,17.83
2022-10-30T11:04:05.074Z,13.90
2022-10-30T11:05:24.639Z,16.90
2022-10-30T11:06:29.951Z,16.35
2022-10-30T11:07:35.768Z,17.27
2022-10-30T11:08:37.817Z,13.93
2022-10-30T11:09:41.190Z,14.88
2022-10-30T11:10:43.276Z,14.38
2022-10-30T11:11:47.805Z,14.00
2022-10-30T11:12:49.870Z,19.13
2022-10-30T11:13:51.714Z,13.63
2022-10-30T11:14:53.362Z,14.23
2022-10-30T11:16:23.083Z,15.30
2022-10-30T11:17:31.296Z,17.40
2022-10-30T11:18:33.857Z,12.32
2022-10-30T11:19:35.496Z,16.88
2022-10-30T11:20:42.976Z,15.10
2022-10-30T11:21:55.410Z,13.25
2022-10-30T11:22:57.326Z,12.30
2022-10-30T11:23:59.241Z,18.35
2022-10-30T11:25:26.847Z,13.93
2022-10-30T11:26:33.787Z,13.15
2022-10-30T11:27:35.578Z,15.83
2022-10-30T11:28:50.111Z,12.27
2022-10-30T11:30:16.328Z,13.55
2022-10-30T11:31:22.839Z,16.90
2022-10-30T11:32:35.738Z,17.00
2022-10-30T11:33:37.434Z,13.80
2022-10-30T11:34:39.114Z,23.50
2022-10-30T11:35:43.697Z,19.30
2022-10-30T11:36:53.004Z,17.52
2022-10-30T11:38:18.742Z,15.75
2022-10-30T11:39:24.829Z,13.43
2022-10-30T11:40:26.833Z,15.00
2022-10-30T11:41:29.015Z,14.75
2022-10-30T11:42:31.046Z,14.25
2022-10-30T11:43:32.882Z,15.00
2022-10-30T11:44:45.142Z,16.55
2022-10-30T11:45:47.423Z,21.00
2022-10-30T11:46:49.148Z,13.27
2022-10-30T11:47:52.101Z,17.33
2022-10-30T11:48:56.711Z,16.92
2022-10-30T11:50:04.950Z,11.80
2022-10-30T11:51:07.060Z,16.67
2022-10-30T11:52:09.730Z,11.15
2022-10-30T11:53:19.548Z,17.35
2022-10-30T11:54:22.212Z,19.75
2022-10-30T11:55:28.488Z,17.70
2022-10-30T11:56:31.403Z,16.45
2022-10-30T11:57:37.772Z,12.70
2022-10-30T11:58:48.238Z,13.88
2022-10-30T11:59:53.987Z,14.98
2022-10-30T12:01:13.526Z,13.93
2022-10-30T12:02:27.297Z,15.13
2022-10-30T12:03:35.368Z,14.05
2022-10-30T12:04:36.996Z,12.93
2022-10-30T12:05:43.713Z,13.93
2022-10-30T12:06:50.581Z,14.02
2022-10-30T12:08:13.209Z,15.93
2022-10-30T12:09:20.322Z,16.58
2022-10-30T12:10:30.395Z,14.75
2022-10-30T12:11:34.371Z,11.73
2022-10-30T12:12:41.542Z,19.27
2022-10-30T12:13:43.233Z,13.48
2022-10-30T12:14:44.926Z,19.13
2022-10-30T12:15:49.777Z,13.85
2022-10-30T12:16:54.602Z,16.70
2022-10-30T12:18:01.667Z,17.52
2022-10-30T12:19:06.682Z,15.65
2022-10-30T12:20:14.963Z,15.65
2022-10-30T12:21:19.960Z,12.20
2022-10-30T12:22:33.066Z,11.73
2022-10-30T12:23:35.370Z,15.83
2022-10-30T12:24:39.568Z,13.73
2022-10-30T12:25:47.878Z,15.88
2022-10-30T12:26:53.008Z,16.90
2022-10-30T12:28:06.446Z,14.63
2022-10-30T12:29:15.400Z,13.00
2022-10-30T12:30:18.900Z,14.13
2022-10-30T12:31:28.377Z,15.43
2022-10-30T12:32:51.371Z,15.98
2022-10-30T12:34:14.630Z,15.07
2022-10-30T12:35:25.643Z,15.47
2022-10-30T12:36:33.543Z,13.45
2022-10-30T12:37:42.761Z,16.92
2022-10-30T12:38:55.665Z,16.52
2022-10-30T12:40:26.681Z,21.88
2022-10-30T12:41:56.745Z,17.98
2022-10-30T12:43:12.061Z,14.50
2022-10-30T12:44:18.515Z,17.40
2022-10-30T12:45:26.181Z,14.93
2022-10-30T12:46:33.802Z,13.35
2022-10-30T12:48:02.535Z,14.90
2022-10-30T12:49:27.730Z,16.17
2022-10-30T12:50:40.432Z,13.80
2022-10-30T12:52:00.832Z,16.08
2022-10-30T12:53:24.504Z,18.05
2022-10-30T12:54:41.678Z,16.88
2022-10-30T12:55:50.970Z,13.50
2022-10-30T12:57:02.600Z,15.13
2022-10-30T12:58:21.771Z,14.75
2022-10-30T12:59:33.392Z,19.27
2022-10-30T13:00:45.948Z,21.53
2022-10-30T13:02:28.720Z,15.75
2022-10-30T13:03:39.833Z,22.02
2022-10-30T13:04:47.844Z,13.07
2022-10-30T13:06:00.246Z,17.95
2022-10-30T13:07:23.826Z,18.80
2022-10-30T13:08:47.161Z,16.27
2022-10-30T13:10:28.873Z,16.85
2022-10-30T13:11:43.263Z,15.60
2022-10-30T13:12:47.829Z,17.23
2022-10-30T13:13:51.910Z,18.20
2022-10-30T13:15:05.844Z,15.30
2022-10-30T13:16:16.763Z,21.08
2022-10-30T13:17:18.466Z,13.95
2022-10-30T13:18:25.319Z,15.80
2022-10-30T13:19:28.140Z,19.20
2022-10-30T13:20:31.245Z,16.77
2022-10-30T13:22:57.597Z,18.25
2022-10-30T13:24:25.109Z,15.77
2022-10-30T13:25:42.821Z,18.80
2022-10-30T13:26:53.529Z,15.57
2022-10-30T13:28:05.385Z,23.08
2022-10-30T13:29:15.762Z,20.85
2022-10-30T13:30:28.786Z,17.05
2022-10-30T13:31:55.960Z,17.65
2022-10-30T13:33:22.672Z,18.35
2022-10-30T13:34:40.466Z,19.15
2022-10-30T13:35:48.859Z,21.23
2022-10-30T13:37:13.733Z,17.65
2022-10-30T13:38:34.210Z,16.37
2022-10-30T13:39:57.881Z,18.27
2022-10-30T13:41:11.205Z,18.30
2022-10-30T13:42:50.889Z,18.73
2022-10-30T13:43:58.421Z,16.15
2022-10-30T13:45:32.207Z,14.82
2022-10-30T13:46:52.825Z,15.95
2022-10-30T13:48:25.427Z,21.63
2022-10-30T13:49:40.161Z,18.17
2022-10-30T13:51:02.709Z,15.95
2022-10-30T13:52:10.030Z,14.00
2022-10-30T13:53:19.020Z,12.75
2022-10-30T13:54:25.414Z,20.83
2022-10-30T13:55:33.574Z,18.38
2022-10-30T13:56:36.166Z,19.17
2022-10-30T13:57:42.391Z,17.50
2022-10-30T13:58:56.451Z,15.18
2022-10-30T14:00:14.941Z,15.88
2022-10-30T14:01:25.940Z,18.05
2022-10-30T14:02:40.237Z,20.27
2022-10-30T14:04:01.951Z,19.90
2022-10-30T14:05:41.297Z,16.30
2022-10-30T14:07:07.133Z,14.00
2022-10-30T14:08:25.323Z,16.40
2022-10-30T14:09:43.402Z,22.88
2022-10-30T14:10:47.073Z,20.77
2022-10-30T14:11:48.831Z,14.93
2022-10-30T14:12:56.753Z,20.23
2022-10-30T14:14:05.447Z,16.58
2022-10-30T14:15:20.362Z,16.60
2022-10-30T14:16:46.595Z,19.07
2022-10-30T14:18:13.247Z,19.42
2022-10-30T14:19:16.325Z,23.30
2022-10-30T14:20:20.544Z,17.55